createdAt,value
2019-05-26T00:01:10.380Z,4.57
2019-05-26T00:03:41.225Z,4.83
2019-05-26T00:06:12.094Z,4.57
2019-05-26T00:08:43.186Z,4.67
2019-05-26T00:11:14.065Z,4.27
2019-05-26T00:13:45.055Z,4.90
2019-05-26T00:16:16.093Z,4.30
2019-05-26T00:18:46.956Z,4.47
2019-05-26T00:21:17.827Z,4.30
2019-05-26T00:23:48.608Z,4.50
2019-05-26T00:26:19.726Z,4.60
2019-05-26T00:28:50.745Z,4.30
2019-05-26T00:31:21.843Z,4.47
2019-05-26T00:33:52.689Z,4.47
2019-05-26T00:36:23.768Z,4.50
2019-05-26T00:38:54.747Z,4.67
2019-05-26T00:41:25.920Z,4.63
2019-05-26T00:43:56.765Z,4.20
2019-05-26T00:46:27.814Z,4.17
2019-05-26T00:48:58.549Z,4.47
2019-05-26T00:51:29.376Z,4.40
2019-05-26T00:54:00.193Z,4.57
2019-05-26T00:56:31.409Z,5.10
2019-05-26T00:59:02.306Z,5.20
2019-05-26T01:01:33.048Z,5.37
2019-05-26T01:04:03.917Z,5.37
2019-05-26T01:06:34.670Z,5.30
2019-05-26T01:09:07.431Z,6.00
2019-05-26T01:11:38.238Z,5.37
2019-05-26T01:14:09.288Z,5.93
2019-05-26T01:16:40.134Z,5.77
2019-05-26T01:19:11.116Z,5.83
2019-05-26T01:21:42.141Z,5.73
2019-05-26T01:24:13.135Z,6.20
2019-05-26T01:26:43.881Z,6.40
2019-05-26T01:29:14.684Z,6.43
2019-05-26T01:31:45.659Z,6.13
2019-05-26T01:34:16.806Z,6.13
2019-05-26T01:36:47.866Z,5.50
2019-05-26T01:39:18.847Z,6.03
2019-05-26T01:41:49.683Z,6.43
2019-05-26T01:44:20.711Z,5.87
2019-05-26T01:46:51.918Z,7.03
2019-05-26T01:49:22.657Z,6.37
2019-05-26T01:51:53.405Z,6.70
2019-05-26T01:54:24.140Z,7.13
2019-05-26T01:56:55.214Z,7.80
2019-05-26T01:59:26.199Z,7.50
2019-05-26T02:01:58.901Z,6.87
2019-05-26T02:04:30.011Z,7.13
2019-05-26T02:07:01.063Z,7.20
2019-05-26T02:09:31.799Z,8.50
2019-05-26T02:12:02.784Z,8.23
2019-05-26T02:14:33.773Z,8.10
2019-05-26T02:17:04.753Z,7.83
2019-05-26T02:19:35.745Z,8.40
2019-05-26T02:22:06.644Z,7.53
2019-05-26T02:24:37.642Z,8.40
2019-05-26T02:27:08.369Z,7.50
2019-05-26T02:29:39.634Z,7.33
2019-05-26T02:32:10.350Z,7.30
2019-05-26T02:34:41.077Z,8.10
2019-05-26T02:37:11.873Z,8.60
2019-05-26T02:39:43.186Z,7.30
2019-05-26T02:42:14.238Z,7.87
2019-05-26T02:44:44.986Z,7.63
2019-05-26T02:47:15.944Z,7.33
2019-05-26T02:49:46.916Z,7.30
2019-05-26T02:52:20.193Z,7.80
2019-05-26T02:54:51.182Z,8.20
2019-05-26T02:57:21.901Z,8.23
2019-05-26T02:59:53.356Z,8.90
2019-05-26T03:02:24.089Z,8.97
2019-05-26T03:04:54.935Z,8.37
2019-05-26T03:07:26.584Z,8.57
2019-05-26T03:09:58.608Z,8.23
2019-05-26T03:12:29.907Z,8.10
2019-05-26T03:15:01.372Z,7.50
2019-05-26T03:17:33.945Z,7.30
2019-05-26T03:20:05.864Z,7.20
2019-05-26T03:22:38.580Z,6.83
2019-05-26T03:25:10.349Z,6.90
2019-05-26T03:27:41.193Z,6.83
2019-05-26T03:30:12.414Z,6.87
2019-05-26T03:32:43.452Z,6.50
2019-05-26T03:35:14.506Z,6.73
2019-05-26T03:37:45.435Z,7.40
2019-05-26T03:40:16.630Z,6.83
2019-05-26T03:42:47.593Z,7.27
2019-05-26T03:45:24.283Z,7.20
2019-05-26T03:47:55.233Z,7.07
2019-05-26T03:50:26.036Z,6.90
2019-05-26T03:52:57.472Z,6.47
2019-05-26T03:55:28.208Z,6.77
2019-05-26T03:57:59.173Z,6.97
2019-05-26T04:00:30.157Z,6.30
2019-05-26T04:03:00.956Z,6.50
2019-05-26T04:05:31.933Z,6.27
2019-05-26T04:08:05.008Z,7.00
2019-05-26T04:10:35.334Z,6.47
2019-05-26T04:13:06.134Z,6.83
2019-05-26T04:15:36.870Z,7.07
2019-05-26T04:18:07.590Z,6.40
2019-05-26T04:20:38.554Z,6.77
2019-05-26T04:23:09.294Z,6.37
2019-05-26T04:25:40.603Z,6.53
2019-05-26T04:28:11.636Z,6.00
2019-05-26T04:30:43.035Z,6.63
2019-05-26T04:33:13.767Z,7.17
2019-05-26T04:35:44.742Z,6.87
2019-05-26T04:38:15.596Z,7.33
2019-05-26T04:40:46.573Z,6.77
2019-05-26T04:43:17.624Z,7.17
2019-05-26T04:45:48.631Z,7.33
2019-05-26T04:48:19.378Z,7.27
2019-05-26T04:50:50.109Z,7.43
2019-05-26T04:53:21.098Z,7.53
2019-05-26T04:55:52.334Z,8.10
2019-05-26T04:58:23.138Z,8.60
2019-05-26T05:00:54.392Z,8.50
2019-05-26T05:03:25.623Z,8.73
2019-05-26T05:05:56.378Z,8.23
2019-05-26T05:08:27.248Z,8.70
2019-05-26T05:10:58.963Z,9.20
2019-05-26T05:13:29.702Z,9.60
2019-05-26T05:16:00.445Z,9.70
2019-05-26T05:18:31.175Z,10.80
2019-05-26T05:21:02.009Z,11.30
2019-05-26T05:23:33.002Z,11.97
2019-05-26T05:26:03.843Z,11.70
2019-05-26T05:28:34.835Z,11.87
2019-05-26T05:31:05.665Z,12.53
2019-05-26T05:33:36.481Z,12.53
2019-05-26T05:36:07.486Z,12.20
2019-05-26T05:38:38.247Z,12.30
2019-05-26T05:41:09.038Z,12.00
2019-05-26T05:43:40.050Z,12.00
2019-05-26T05:46:12.037Z,13.30
2019-05-26T05:48:42.785Z,13.07
2019-05-26T05:51:14.007Z,12.23
2019-05-26T05:53:44.762Z,12.80
2019-05-26T05:56:15.762Z,13.40
2019-05-26T05:58:47.048Z,14.33
2019-05-26T06:01:17.965Z,13.27
2019-05-26T06:03:48.714Z,12.87
2019-05-26T06:06:19.477Z,12.37
2019-05-26T06:08:50.448Z,12.77
2019-05-26T06:11:22.410Z,12.70
2019-05-26T06:13:53.160Z,13.33
2019-05-26T06:16:23.923Z,13.30
2019-05-26T06:18:54.733Z,12.97
2019-05-26T06:21:25.978Z,12.23
2019-05-26T06:23:57.447Z,12.07
2019-05-26T06:26:28.448Z,12.53
2019-05-26T06:28:59.695Z,12.60
2019-05-26T06:31:31.095Z,12.00
2019-05-26T06:34:02.073Z,11.87
2019-05-26T06:36:33.074Z,12.07
2019-05-26T06:39:05.723Z,11.87
2019-05-26T06:41:36.579Z,12.27
2019-05-26T06:44:07.392Z,11.83
2019-05-26T06:46:38.162Z,11.93
2019-05-26T06:49:08.908Z,11.60
2019-05-26T06:51:40.129Z,10.73
2019-05-26T06:54:10.868Z,10.27
2019-05-26T06:56:42.077Z,10.05
2019-05-26T06:59:13.281Z,9.90
2019-05-26T07:01:44.057Z,10.03
2019-05-26T07:04:14.895Z,10.40
2019-05-26T07:06:46.211Z,9.70
2019-05-26T07:09:16.937Z,9.85
2019-05-26T07:11:57.020Z,10.00
2019-05-26T07:14:20.374Z,9.75
2019-05-26T07:16:51.344Z,9.90
2019-05-26T07:19:22.457Z,9.80
2019-05-26T07:21:53.188Z,9.78
2019-05-26T07:24:23.928Z,10.00
2019-05-26T07:26:54.905Z,9.50
2019-05-26T07:29:26.177Z,10.00
2019-05-26T07:31:56.927Z,10.45
2019-05-26T07:34:27.972Z,9.80
2019-05-26T07:36:58.734Z,10.38
2019-05-26T07:39:29.906Z,10.30
2019-05-26T07:42:10.174Z,9.50
2019-05-26T07:44:34.313Z,9.85
2019-05-26T07:47:05.149Z,9.75
2019-05-26T07:49:35.891Z,9.75
2019-05-26T07:52:06.805Z,9.60
2019-05-26T07:54:38.106Z,10.60
2019-05-26T07:57:09.114Z,11.10
2019-05-26T07:59:40.255Z,10.25
2019-05-26T08:02:11.400Z,10.65
2019-05-26T08:04:42.384Z,10.18
2019-05-26T08:07:13.956Z,11.30
2019-05-26T08:09:44.781Z,11.30
2019-05-26T08:12:25.969Z,10.98
2019-05-26T08:14:48.435Z,10.58
2019-05-26T08:17:19.215Z,11.15
2019-05-26T08:20:11.704Z,10.63
2019-05-26T08:22:42.693Z,11.45
2019-05-26T08:25:13.872Z,11.70
2019-05-26T08:27:45.142Z,12.20
2019-05-26T08:30:16.038Z,12.50
2019-05-26T08:32:47.062Z,11.18
2019-05-26T08:35:18.136Z,10.50
2019-05-26T08:37:48.949Z,11.68
2019-05-26T08:40:19.968Z,11.50
2019-05-26T08:42:51.941Z,11.55
2019-05-26T08:45:24.339Z,10.90
2019-05-26T08:47:55.165Z,12.10
2019-05-26T08:50:26.013Z,11.45
2019-05-26T08:52:56.833Z,12.15
2019-05-26T08:55:27.917Z,11.80
2019-05-26T08:57:58.747Z,10.88
2019-05-26T09:00:29.592Z,11.38
2019-05-26T09:03:00.893Z,12.85
2019-05-26T09:05:31.637Z,11.48
2019-05-26T09:08:02.467Z,12.13
2019-05-26T09:10:33.240Z,12.78
2019-05-26T09:13:04.306Z,12.15
2019-05-26T09:15:35.279Z,12.63
2019-05-26T09:18:06.298Z,13.20
2019-05-26T09:20:37.313Z,19.45
2019-05-26T09:23:08.390Z,14.00
2019-05-26T09:25:39.928Z,12.58
2019-05-26T09:28:10.964Z,13.72
2019-05-26T09:30:41.964Z,15.30
2019-05-26T09:33:12.782Z,16.07
2019-05-26T09:35:43.548Z,15.58
2019-05-26T09:38:14.367Z,19.42
2019-05-26T09:40:45.475Z,17.73
2019-05-26T09:43:16.895Z,18.45
2019-05-26T09:45:47.702Z,17.02
2019-05-26T09:48:18.915Z,17.62
2019-05-26T09:50:49.675Z,19.92
2019-05-26T09:53:20.457Z,18.07
2019-05-26T09:55:51.309Z,19.17
2019-05-26T09:58:22.237Z,17.25
2019-05-26T10:00:53.211Z,16.57
2019-05-26T10:03:24.040Z,15.95
2019-05-26T10:05:55.276Z,12.88
2019-05-26T10:08:26.013Z,11.50
2019-05-26T10:10:57.076Z,10.53
2019-05-26T10:13:31.786Z,10.48
2019-05-26T10:16:00.534Z,10.28
2019-05-26T10:18:31.662Z,11.53
2019-05-26T10:21:02.667Z,12.98
2019-05-26T10:23:33.646Z,11.90
2019-05-26T10:26:04.466Z,11.43
2019-05-26T10:28:35.438Z,10.63
2019-05-26T10:31:06.586Z,11.33
2019-05-26T10:33:37.562Z,9.90
2019-05-26T10:36:09.260Z,7.80
2019-05-26T10:38:40.284Z,7.10
2019-05-26T10:41:11.012Z,7.00
2019-05-26T10:43:47.221Z,6.00
2019-05-26T10:46:14.724Z,7.00
2019-05-26T10:48:45.969Z,7.53
2019-05-26T10:51:16.921Z,7.55
2019-05-26T10:53:47.892Z,8.15
2019-05-26T10:56:18.891Z,7.05
2019-05-26T10:58:49.634Z,8.10
2019-05-26T11:01:20.389Z,8.78
2019-05-26T11:03:51.356Z,7.58
2019-05-26T11:06:22.659Z,8.70
2019-05-26T11:09:12.671Z,10.15
2019-05-26T11:11:43.652Z,8.90
2019-05-26T11:14:14.452Z,7.90
2019-05-26T11:16:45.204Z,7.72
2019-05-26T11:19:16.976Z,7.25
2019-05-26T11:21:48.055Z,8.20
2019-05-26T11:24:18.777Z,6.97
2019-05-26T11:26:49.909Z,6.87
2019-05-26T11:29:20.604Z,6.58
2019-05-26T11:31:51.603Z,7.25
2019-05-26T11:34:22.413Z,6.30
2019-05-26T11:36:53.176Z,7.17
2019-05-26T11:39:24.153Z,6.55
2019-05-26T11:41:55.359Z,7.10
2019-05-26T11:44:26.033Z,6.62
2019-05-26T11:46:56.844Z,6.40
2019-05-26T11:49:27.564Z,6.37
2019-05-26T11:51:59.518Z,6.97
2019-05-26T11:54:34.142Z,6.85
2019-05-26T11:57:02.936Z,6.70
2019-05-26T11:59:33.903Z,6.37
2019-05-26T12:02:05.019Z,6.95
2019-05-26T12:04:35.751Z,6.35
2019-05-26T12:07:06.603Z,6.25
2019-05-26T12:09:37.332Z,6.15
2019-05-26T12:12:08.607Z,5.87
2019-05-26T12:14:40.308Z,5.35
2019-05-26T12:17:11.300Z,5.00
2019-05-26T12:19:42.261Z,5.85
2019-05-26T12:22:13.262Z,5.97
2019-05-26T12:27:33.780Z,5.90
2019-05-26T12:30:18.595Z,6.00
2019-05-26T12:32:49.824Z,5.30
2019-05-26T12:35:20.623Z,5.42
2019-05-26T12:37:51.590Z,5.10
2019-05-26T12:40:22.316Z,4.50
2019-05-26T12:42:53.132Z,4.60
2019-05-26T12:45:24.028Z,4.60
2019-05-26T12:47:55.015Z,4.58
2019-05-26T12:50:26.208Z,4.50
2019-05-26T12:52:56.951Z,4.22
2019-05-26T12:55:27.915Z,4.50
2019-05-26T12:57:58.689Z,4.65
2019-05-26T13:00:45.361Z,4.47
2019-05-26T13:03:02.313Z,4.62
2019-05-26T13:05:33.060Z,4.60
2019-05-26T13:08:03.867Z,4.67
2019-05-26T13:10:34.845Z,4.40
2019-05-26T13:13:05.656Z,4.42
2019-05-26T13:15:36.383Z,4.60
2019-05-26T13:18:07.196Z,4.67
2019-05-26T13:20:38.154Z,4.37
2019-05-26T13:23:09.137Z,4.87
2019-05-26T13:25:39.869Z,4.40
2019-05-26T13:28:10.624Z,4.22
2019-05-26T13:30:41.416Z,4.30
2019-05-26T13:33:12.156Z,4.58
2019-05-26T13:35:42.873Z,4.12
2019-05-26T13:38:13.695Z,4.20
2019-05-26T13:40:44.656Z,4.30
2019-05-26T13:43:15.463Z,4.10
2019-05-26T13:45:46.676Z,4.00
2019-05-26T13:48:17.889Z,4.00
2019-05-26T13:50:48.689Z,4.20
2019-05-26T13:53:19.602Z,4.10
2019-05-26T13:55:50.800Z,3.80
2019-05-26T13:58:21.848Z,3.77
2019-05-26T14:00:52.895Z,4.00
2019-05-26T14:03:24.421Z,3.60
2019-05-26T14:05:56.351Z,3.60
2019-05-26T14:08:27.162Z,3.33
2019-05-26T14:10:58.123Z,3.10
2019-05-26T14:13:29.101Z,3.20
2019-05-26T14:16:00.317Z,3.10
2019-05-26T14:18:31.338Z,3.30
2019-05-26T14:21:02.433Z,3.30
2019-05-26T14:23:33.670Z,3.35
2019-05-26T14:26:04.469Z,3.20
2019-05-26T14:28:35.432Z,3.20
2019-05-26T14:31:06.412Z,3.17
2019-05-26T14:33:37.383Z,3.08
2019-05-26T14:36:08.323Z,3.08
2019-05-26T14:38:43.194Z,3.00
2019-05-26T14:41:11.703Z,3.17
2019-05-26T14:43:42.740Z,3.10
2019-05-26T14:46:13.700Z,3.08
2019-05-26T14:48:44.905Z,2.98
2019-05-26T14:51:15.712Z,2.77
2019-05-26T14:53:46.940Z,3.25
2019-05-26T14:56:17.888Z,2.70
2019-05-26T14:58:49.120Z,2.58
2019-05-26T15:01:19.843Z,2.70
2019-05-26T15:03:50.577Z,2.72
2019-05-26T15:06:21.303Z,3.08
2019-05-26T15:08:52.043Z,3.10
2019-05-26T15:11:23.537Z,3.22
2019-05-26T15:13:54.268Z,2.77
2019-05-26T15:16:24.995Z,2.87
2019-05-26T15:18:56.162Z,2.52
2019-05-26T15:21:27.373Z,2.95
2019-05-26T15:23:58.112Z,2.90
2019-05-26T15:26:29.178Z,2.65
2019-05-26T15:28:59.980Z,3.00
2019-05-26T15:31:31.190Z,3.00
2019-05-26T15:34:02.016Z,3.00
2019-05-26T15:36:32.985Z,2.85
2019-05-26T15:39:04.456Z,2.77
2019-05-26T15:41:35.515Z,2.75
2019-05-26T15:44:06.579Z,2.85
2019-05-26T15:46:37.335Z,2.90
2019-05-26T15:49:08.139Z,2.67
2019-05-26T15:51:39.101Z,3.00
2019-05-26T15:54:09.850Z,2.80
2019-05-26T15:56:40.806Z,2.40
2019-05-26T15:59:11.766Z,3.10
2019-05-26T16:01:42.662Z,3.70
2019-05-26T16:04:13.860Z,3.17
2019-05-26T16:06:45.674Z,3.00
2019-05-26T16:09:16.489Z,3.08
2019-05-26T16:11:47.228Z,3.08
2019-05-26T16:14:17.964Z,2.85
2019-05-26T16:16:51.246Z,2.85
2019-05-26T16:19:21.205Z,2.80
2019-05-26T16:21:52.246Z,2.80
2019-05-26T16:24:23.213Z,3.08
2019-05-26T16:26:54.430Z,2.67
2019-05-26T16:29:25.404Z,2.95
2019-05-26T16:31:56.123Z,2.90
2019-05-26T16:34:27.116Z,3.50
2019-05-26T16:36:58.178Z,2.92
2019-05-26T16:39:36.890Z,2.92
2019-05-26T16:42:01.608Z,2.90
2019-05-26T16:44:32.463Z,3.12
2019-05-26T16:47:03.511Z,3.30
2019-05-26T16:49:34.480Z,3.15
2019-05-26T16:52:05.442Z,3.25
2019-05-26T16:54:36.482Z,2.90
2019-05-26T16:57:07.291Z,3.05
2019-05-26T16:59:38.106Z,2.67
2019-05-26T17:02:09.181Z,3.02
2019-05-26T17:04:40.155Z,2.80
2019-05-26T17:07:11.055Z,2.67
2019-05-26T17:09:41.801Z,2.67
2019-05-26T17:12:13.016Z,2.58
2019-05-26T17:14:44.452Z,2.70
2019-05-26T17:17:15.816Z,2.80
2019-05-26T17:19:46.625Z,2.70
2019-05-26T17:22:17.387Z,2.75
2019-05-26T17:24:48.361Z,2.60
2019-05-26T17:27:19.100Z,2.50
2019-05-26T17:29:50.397Z,2.30
2019-05-26T17:32:21.144Z,2.67
2019-05-26T17:34:51.871Z,2.45
2019-05-26T17:37:22.603Z,2.50
2019-05-26T17:39:53.705Z,2.60
2019-05-26T17:42:24.439Z,2.50
2019-05-26T17:44:55.410Z,2.80
2019-05-26T17:47:30.453Z,2.60
2019-05-26T17:49:58.578Z,2.60
2019-05-26T17:52:29.805Z,2.22
2019-05-26T17:55:00.555Z,2.50
2019-05-26T17:57:31.279Z,3.12
2019-05-26T18:00:02.395Z,2.50
2019-05-26T18:02:34.920Z,2.60
2019-05-26T18:05:06.037Z,3.12
2019-05-26T18:07:36.945Z,2.65
2019-05-26T18:10:08.351Z,2.77
2019-05-26T18:12:39.080Z,2.90
2019-05-26T18:15:11.270Z,2.50
2019-05-26T18:17:47.333Z,2.50
2019-05-26T18:20:14.959Z,2.62
2019-05-26T18:22:46.265Z,2.60
2019-05-26T18:25:17.542Z,2.60
2019-05-26T18:27:48.465Z,2.60
2019-05-26T18:30:19.507Z,2.70
2019-05-26T18:32:50.539Z,2.90
2019-05-26T18:35:21.337Z,2.40
2019-05-26T18:37:52.864Z,2.40
2019-05-26T18:40:42.906Z,2.67
2019-05-26T18:43:27.384Z,2.43
2019-05-26T18:46:17.488Z,2.63
2019-05-26T18:49:13.002Z,2.47
2019-05-26T18:58:22.391Z,2.70
2019-05-26T19:01:18.103Z,2.40
2019-05-26T19:03:48.936Z,2.67
2019-05-26T19:06:19.841Z,3.00
2019-05-26T19:08:52.117Z,3.47
2019-05-26T19:11:23.191Z,2.80
2019-05-26T19:13:54.145Z,2.63
2019-05-26T19:16:24.875Z,3.00
2019-05-26T19:18:55.600Z,2.90
2019-05-26T19:21:26.399Z,2.90
2019-05-26T19:23:57.354Z,2.77
2019-05-26T19:26:28.081Z,2.70
2019-05-26T19:28:58.823Z,2.80
2019-05-26T19:31:29.553Z,2.87
2019-05-26T19:34:00.829Z,2.80
2019-05-26T19:36:31.644Z,2.90
2019-05-26T19:39:02.385Z,2.60
2019-05-26T19:41:33.293Z,2.87
2019-05-26T19:44:04.037Z,2.90
2019-05-26T19:46:34.756Z,2.73
2019-05-26T19:49:05.744Z,2.80
2019-05-26T19:51:36.704Z,2.60
2019-05-26T19:54:07.599Z,2.50
2019-05-26T19:56:38.337Z,2.73
2019-05-26T19:59:09.157Z,2.77
2019-05-26T20:01:40.257Z,2.80
2019-05-26T20:04:35.559Z,2.87
2019-05-26T20:07:06.533Z,3.03
2019-05-26T20:09:37.592Z,2.80
2019-05-26T20:12:08.335Z,2.90
2019-05-26T20:14:39.413Z,2.70
2019-05-26T20:17:31.124Z,2.60
2019-05-26T20:20:01.929Z,2.50
2019-05-26T20:22:32.654Z,2.50
2019-05-26T20:25:03.464Z,2.60
2019-05-26T20:27:34.653Z,2.53
2019-05-26T20:30:05.597Z,2.50
2019-05-26T20:32:36.639Z,2.80
2019-05-26T20:35:07.735Z,2.93
2019-05-26T20:37:38.994Z,2.70
2019-05-26T20:40:09.994Z,2.80
2019-05-26T20:42:41.653Z,2.60
2019-05-26T20:45:12.644Z,2.87
2019-05-26T20:47:43.929Z,2.80
2019-05-26T20:50:28.821Z,3.00
2019-05-26T20:52:49.032Z,2.97
2019-05-26T20:55:20.310Z,2.90
2019-05-26T20:57:51.982Z,2.67
2019-05-26T21:00:22.787Z,2.93
2019-05-26T21:02:53.764Z,2.73
2019-05-26T21:05:24.742Z,2.80
2019-05-26T21:07:56.514Z,2.90
2019-05-26T21:10:27.555Z,2.87
2019-05-26T21:12:58.360Z,2.83
2019-05-26T21:15:29.106Z,2.70
2019-05-26T21:18:00.066Z,3.10
2019-05-26T21:20:30.812Z,2.70
2019-05-26T21:23:01.771Z,2.40
2019-05-26T21:25:32.567Z,2.60
2019-05-26T21:28:03.444Z,2.90
2019-05-26T21:30:34.963Z,2.73
2019-05-26T21:33:05.776Z,2.70
2019-05-26T21:35:36.843Z,2.70
2019-05-26T21:38:07.886Z,2.90
2019-05-26T21:40:39.334Z,2.60
2019-05-26T21:43:10.534Z,2.97
2019-05-26T21:45:41.517Z,2.80
2019-05-26T21:48:12.246Z,2.80
2019-05-26T21:50:43.001Z,2.80
2019-05-26T21:53:14.046Z,2.70
2019-05-26T21:55:44.940Z,2.80
2019-05-26T21:58:15.934Z,2.90
2019-05-26T22:00:48.851Z,2.60
2019-05-26T22:03:21.422Z,2.67
2019-05-26T22:05:52.416Z,2.83
2019-05-26T22:08:27.107Z,2.70
2019-05-26T22:10:58.820Z,2.70
2019-05-26T22:13:30.132Z,2.70
2019-05-26T22:16:01.000Z,3.10
2019-05-26T22:18:31.727Z,2.70
2019-05-26T22:21:02.777Z,3.00
2019-05-26T22:23:33.505Z,2.77
2019-05-26T22:26:04.329Z,2.80
2019-05-26T22:28:35.624Z,2.90
2019-05-26T22:33:48.378Z,2.63
2019-05-26T22:39:27.885Z,2.97
2019-05-26T22:41:58.872Z,2.83
2019-05-26T22:44:29.682Z,2.80
2019-05-26T22:47:00.671Z,2.80
2019-05-26T22:49:31.431Z,2.73
2019-05-26T22:52:02.176Z,2.97
2019-05-26T22:54:33.502Z,2.97
2019-05-26T22:57:23.887Z,2.90
2019-05-26T23:02:44.900Z,3.00
2019-05-26T23:05:35.561Z,2.80
2019-05-26T23:08:25.413Z,2.93
2019-05-26T23:10:56.393Z,2.70
2019-05-26T23:13:27.130Z,2.73
2019-05-26T23:15:57.929Z,2.80
2019-05-26T23:18:28.897Z,3.00
2019-05-26T23:20:59.620Z,2.90
2019-05-26T23:23:30.867Z,2.80
2019-05-26T23:26:01.921Z,3.00
2019-05-26T23:28:32.898Z,2.57
2019-05-26T23:31:03.915Z,2.80
2019-05-26T23:33:34.661Z,2.73
2019-05-26T23:36:06.433Z,2.70
2019-05-26T23:38:37.444Z,2.70
2019-05-26T23:41:08.403Z,2.80
2019-05-26T23:43:39.851Z,3.13
2019-05-26T23:46:10.802Z,2.93
2019-05-26T23:48:41.559Z,2.60
2019-05-26T23:54:22.892Z,2.83
2019-05-26T23:59:43.680Z,2.60
